sensor_id;sensor_type;location;lat;lon;timestamp;P1;durP1;ratioP1;P2;durP2;ratioP2
22857;SDS011;13919;45.644;13.764;2022-07-29T00:00:06;8.32;;;5.07;;
22857;SDS011;13919;45.644;13.764;2022-07-29T00:02:32;12.25;;;6.13;;
22857;SDS011;13919;45.644;13.764;2022-07-29T00:04:58;7.40;;;4.75;;
22857;SDS011;13919;45.644;13.764;2022-07-29T00:07:24;8.50;;;5.00;;
22857;SDS011;13919;45.644;13.764;2022-07-29T00:09:51;8.30;;;5.63;;
22857;SDS011;13919;45.644;13.764;2022-07-29T00:12:17;10.95;;;5.47;;
22857;SDS011;13919;45.644;13.764;2022-07-29T00:14:43;8.07;;;5.35;;
22857;SDS011;13919;45.644;13.764;2022-07-29T00:17:09;7.57;;;4.55;;
22857;SDS011;13919;45.644;13.764;2022-07-29T00:19:35;6.32;;;4.80;;
22857;SDS011;13919;45.644;13.764;2022-07-29T00:22:01;7.55;;;4.97;;
22857;SDS011;13919;45.644;13.764;2022-07-29T00:24:27;8.93;;;5.35;;
22857;SDS011;13919;45.644;13.764;2022-07-29T00:26:53;9.65;;;4.95;;
22857;SDS011;13919;45.644;13.764;2022-07-29T00:29:19;6.45;;;5.03;;
22857;SDS011;13919;45.644;13.764;2022-07-29T00:31:45;6.03;;;4.60;;
22857;SDS011;13919;45.644;13.764;2022-07-29T00:34:11;6.30;;;4.70;;
22857;SDS011;13919;45.644;13.764;2022-07-29T00:36:56;7.78;;;4.85;;
22857;SDS011;13919;45.644;13.764;2022-07-29T00:39:22;7.47;;;4.85;;
22857;SDS011;13919;45.644;13.764;2022-07-29T00:41:49;8.05;;;4.63;;
22857;SDS011;13919;45.644;13.764;2022-07-29T00:44:15;7.47;;;4.75;;
22857;SDS011;13919;45.644;13.764;2022-07-29T00:46:41;7.43;;;5.03;;
22857;SDS011;13919;45.644;13.764;2022-07-29T00:49:07;7.90;;;4.55;;
22857;SDS011;13919;45.644;13.764;2022-07-29T00:51:37;9.07;;;5.00;;
22857;SDS011;13919;45.644;13.764;2022-07-29T00:56:32;7.20;;;4.78;;
22857;SDS011;13919;45.644;13.764;2022-07-29T01:01:24;7.60;;;4.85;;
22857;SDS011;13919;45.644;13.764;2022-07-29T01:03:50;6.70;;;4.95;;
22857;SDS011;13919;45.644;13.764;2022-07-29T01:06:16;6.75;;;4.80;;
22857;SDS011;13919;45.644;13.764;2022-07-29T01:08:42;7.28;;;5.10;;
22857;SDS011;13919;45.644;13.764;2022-07-29T01:11:09;7.13;;;5.07;;
22857;SDS011;13919;45.644;13.764;2022-07-29T01:13:35;9.18;;;5.20;;
22857;SDS011;13919;45.644;13.764;2022-07-29T01:16:18;8.25;;;4.90;;
22857;SDS011;13919;45.644;13.764;2022-07-29T01:18:46;6.50;;;4.65;;
22857;SDS011;13919;45.644;13.764;2022-07-29T01:28:41;6.95;;;5.15;;
22857;SDS011;13919;45.644;13.764;2022-07-29T01:31:10;11.73;;;4.95;;
22857;SDS011;13919;45.644;13.764;2022-07-29T01:33:38;8.32;;;5.53;;
22857;SDS011;13919;45.644;13.764;2022-07-29T01:36:17;6.60;;;5.35;;
22857;SDS011;13919;45.644;13.764;2022-07-29T01:38:47;8.68;;;5.18;;
22857;SDS011;13919;45.644;13.764;2022-07-29T01:41:16;8.52;;;5.18;;
22857;SDS011;13919;45.644;13.764;2022-07-29T01:46:13;8.60;;;5.00;;
22857;SDS011;13919;45.644;13.764;2022-07-29T01:48:47;5.93;;;4.78;;
22857;SDS011;13919;45.644;13.764;2022-07-29T01:51:18;6.47;;;5.15;;
22857;SDS011;13919;45.644;13.764;2022-07-29T01:53:59;7.68;;;5.40;;
22857;SDS011;13919;45.644;13.764;2022-07-29T01:56:27;5.80;;;4.80;;
22857;SDS011;13919;45.644;13.764;2022-07-29T01:58:56;8.48;;;5.50;;
22857;SDS011;13919;45.644;13.764;2022-07-29T02:01:23;7.18;;;5.75;;
22857;SDS011;13919;45.644;13.764;2022-07-29T02:03:49;8.70;;;5.63;;
22857;SDS011;13919;45.644;13.764;2022-07-29T02:06:17;9.50;;;5.53;;
22857;SDS011;13919;45.644;13.764;2022-07-29T02:08:44;6.97;;;5.20;;
22857;SDS011;13919;45.644;13.764;2022-07-29T02:11:11;7.35;;;5.38;;
22857;SDS011;13919;45.644;13.764;2022-07-29T02:13:37;7.65;;;5.30;;
22857;SDS011;13919;45.644;13.764;2022-07-29T02:16:04;9.02;;;5.70;;
22857;SDS011;13919;45.644;13.764;2022-07-29T02:18:31;6.85;;;5.40;;
22857;SDS011;13919;45.644;13.764;2022-07-29T02:20:58;8.40;;;5.07;;
22857;SDS011;13919;45.644;13.764;2022-07-29T02:23:25;9.32;;;4.95;;
22857;SDS011;13919;45.644;13.764;2022-07-29T02:25:53;12.85;;;5.18;;
22857;SDS011;13919;45.644;13.764;2022-07-29T02:28:20;7.40;;;5.10;;
22857;SDS011;13919;45.644;13.764;2022-07-29T02:30:48;7.53;;;5.53;;
22857;SDS011;13919;45.644;13.764;2022-07-29T02:33:14;6.82;;;4.95;;
22857;SDS011;13919;45.644;13.764;2022-07-29T02:35:41;6.97;;;5.07;;
22857;SDS011;13919;45.644;13.764;2022-07-29T02:38:09;7.30;;;4.60;;
22857;SDS011;13919;45.644;13.764;2022-07-29T02:40:57;7.23;;;4.70;;
22857;SDS011;13919;45.644;13.764;2022-07-29T02:43:24;6.55;;;4.68;;
22857;SDS011;13919;45.644;13.764;2022-07-29T02:45:51;7.13;;;5.03;;
22857;SDS011;13919;45.644;13.764;2022-07-29T02:48:18;7.45;;;5.10;;
22857;SDS011;13919;45.644;13.764;2022-07-29T02:50:51;6.30;;;4.80;;
22857;SDS011;13919;45.644;13.764;2022-07-29T02:53:22;6.90;;;4.65;;
22857;SDS011;13919;45.644;13.764;2022-07-29T02:55:56;8.52;;;4.85;;
22857;SDS011;13919;45.644;13.764;2022-07-29T02:58:32;8.10;;;4.93;;
22857;SDS011;13919;45.644;13.764;2022-07-29T03:01:11;10.18;;;5.07;;
22857;SDS011;13919;45.644;13.764;2022-07-29T03:03:38;6.97;;;5.18;;
22857;SDS011;13919;45.644;13.764;2022-07-29T03:06:05;8.45;;;5.47;;
22857;SDS011;13919;45.644;13.764;2022-07-29T03:08:33;9.98;;;5.57;;
22857;SDS011;13919;45.644;13.764;2022-07-29T03:11:00;6.00;;;4.55;;
22857;SDS011;13919;45.644;13.764;2022-07-29T03:13:27;6.68;;;4.70;;
22857;SDS011;13919;45.644;13.764;2022-07-29T03:15:53;7.20;;;4.53;;
22857;SDS011;13919;45.644;13.764;2022-07-29T03:18:19;6.97;;;4.68;;
22857;SDS011;13919;45.644;13.764;2022-07-29T03:20:45;9.10;;;4.97;;
22857;SDS011;13919;45.644;13.764;2022-07-29T03:23:11;6.50;;;4.32;;
22857;SDS011;13919;45.644;13.764;2022-07-29T03:25:37;8.05;;;4.43;;
22857;SDS011;13919;45.644;13.764;2022-07-29T03:28:04;6.05;;;4.40;;
22857;SDS011;13919;45.644;13.764;2022-07-29T03:30:30;6.13;;;4.78;;
22857;SDS011;13919;45.644;13.764;2022-07-29T03:32:56;7.85;;;4.15;;
22857;SDS011;13919;45.644;13.764;2022-07-29T03:35:22;7.43;;;4.60;;
22857;SDS011;13919;45.644;13.764;2022-07-29T03:37:48;5.38;;;4.53;;
22857;SDS011;13919;45.644;13.764;2022-07-29T03:40:18;8.73;;;4.50;;
22857;SDS011;13919;45.644;13.764;2022-07-29T03:42:45;7.07;;;4.63;;
22857;SDS011;13919;45.644;13.764;2022-07-29T03:45:13;5.97;;;4.60;;
22857;SDS011;13919;45.644;13.764;2022-07-29T03:47:42;7.65;;;4.82;;
22857;SDS011;13919;45.644;13.764;2022-07-29T03:50:11;7.57;;;4.65;;
22857;SDS011;13919;45.644;13.764;2022-07-29T03:52:38;6.57;;;3.97;;
22857;SDS011;13919;45.644;13.764;2022-07-29T03:55:04;5.30;;;4.07;;
22857;SDS011;13919;45.644;13.764;2022-07-29T03:57:30;6.72;;;4.60;;
22857;SDS011;13919;45.644;13.764;2022-07-29T03:59:57;7.03;;;4.35;;
22857;SDS011;13919;45.644;13.764;2022-07-29T04:02:23;6.55;;;4.80;;
22857;SDS011;13919;45.644;13.764;2022-07-29T04:04:50;7.60;;;4.40;;
22857;SDS011;13919;45.644;13.764;2022-07-29T04:07:16;6.38;;;4.20;;
22857;SDS011;13919;45.644;13.764;2022-07-29T04:09:43;6.00;;;4.40;;
22857;SDS011;13919;45.644;13.764;2022-07-29T04:12:09;8.07;;;4.22;;
22857;SDS011;13919;45.644;13.764;2022-07-29T04:14:35;7.72;;;4.20;;
22857;SDS011;13919;45.644;13.764;2022-07-29T04:17:02;6.57;;;4.47;;
22857;SDS011;13919;45.644;13.764;2022-07-29T04:19:28;5.00;;;3.83;;
22857;SDS011;13919;45.644;13.764;2022-07-29T04:21:55;6.03;;;4.35;;
22857;SDS011;13919;45.644;13.764;2022-07-29T04:24:21;7.85;;;4.35;;
22857;SDS011;13919;45.644;13.764;2022-07-29T04:26:47;5.82;;;4.35;;
22857;SDS011;13919;45.644;13.764;2022-07-29T04:29:13;6.38;;;4.43;;
22857;SDS011;13919;45.644;13.764;2022-07-29T04:31:40;7.70;;;4.88;;
22857;SDS011;13919;45.644;13.764;2022-07-29T04:34:06;4.93;;;4.38;;
22857;SDS011;13919;45.644;13.764;2022-07-29T04:36:32;6.97;;;4.40;;
22857;SDS011;13919;45.644;13.764;2022-07-29T04:38:58;11.20;;;4.63;;
22857;SDS011;13919;45.644;13.764;2022-07-29T04:41:25;5.75;;;4.30;;
22857;SDS011;13919;45.644;13.764;2022-07-29T04:43:52;8.50;;;4.70;;
22857;SDS011;13919;45.644;13.764;2022-07-29T04:46:18;6.88;;;4.07;;
22857;SDS011;13919;45.644;13.764;2022-07-29T04:48:47;6.55;;;4.43;;
22857;SDS011;13919;45.644;13.764;2022-07-29T04:53:39;7.90;;;4.40;;
22857;SDS011;13919;45.644;13.764;2022-07-29T04:56:05;6.93;;;4.32;;
22857;SDS011;13919;45.644;13.764;2022-07-29T04:58:31;5.95;;;4.40;;
22857;SDS011;13919;45.644;13.764;2022-07-29T05:00:59;7.10;;;4.30;;
22857;SDS011;13919;45.644;13.764;2022-07-29T05:03:25;8.38;;;4.50;;
22857;SDS011;13919;45.644;13.764;2022-07-29T05:05:51;7.43;;;5.00;;
22857;SDS011;13919;45.644;13.764;2022-07-29T05:08:17;9.82;;;4.72;;
22857;SDS011;13919;45.644;13.764;2022-07-29T05:10:43;6.53;;;4.45;;
22857;SDS011;13919;45.644;13.764;2022-07-29T05:13:09;8.07;;;3.85;;
22857;SDS011;13919;45.644;13.764;2022-07-29T05:15:36;6.78;;;4.22;;
22857;SDS011;13919;45.644;13.764;2022-07-29T05:18:02;8.10;;;4.03;;
22857;SDS011;13919;45.644;13.764;2022-07-29T05:20:28;5.22;;;4.00;;
22857;SDS011;13919;45.644;13.764;2022-07-29T05:22:55;7.55;;;4.07;;
22857;SDS011;13919;45.644;13.764;2022-07-29T05:25:22;7.85;;;4.10;;
22857;SDS011;13919;45.644;13.764;2022-07-29T05:27:48;6.90;;;4.15;;
22857;SDS011;13919;45.644;13.764;2022-07-29T05:30:14;9.98;;;4.25;;
22857;SDS011;13919;45.644;13.764;2022-07-29T05:32:40;8.57;;;4.30;;
22857;SDS011;13919;45.644;13.764;2022-07-29T05:35:06;8.95;;;4.28;;
22857;SDS011;13919;45.644;13.764;2022-07-29T05:37:33;8.30;;;4.25;;
22857;SDS011;13919;45.644;13.764;2022-07-29T05:39:59;7.65;;;4.30;;
22857;SDS011;13919;45.644;13.764;2022-07-29T05:42:25;9.63;;;4.00;;
22857;SDS011;13919;45.644;13.764;2022-07-29T05:44:52;9.98;;;4.55;;
22857;SDS011;13919;45.644;13.764;2022-07-29T05:47:18;6.72;;;4.72;;
22857;SDS011;13919;45.644;13.764;2022-07-29T05:49:44;10.00;;;4.15;;
22857;SDS011;13919;45.644;13.764;2022-07-29T05:52:11;7.70;;;4.22;;
22857;SDS011;13919;45.644;13.764;2022-07-29T05:54:38;7.85;;;4.10;;
22857;SDS011;13919;45.644;13.764;2022-07-29T05:57:04;9.90;;;4.13;;
22857;SDS011;13919;45.644;13.764;2022-07-29T05:59:30;6.97;;;3.85;;
22857;SDS011;13919;45.644;13.764;2022-07-29T06:01:57;8.90;;;4.32;;
22857;SDS011;13919;45.644;13.764;2022-07-29T06:04:23;9.77;;;4.20;;
22857;SDS011;13919;45.644;13.764;2022-07-29T06:06:49;9.30;;;4.05;;
22857;SDS011;13919;45.644;13.764;2022-07-29T06:09:15;6.13;;;4.20;;
22857;SDS011;13919;45.644;13.764;2022-07-29T06:11:41;10.23;;;4.40;;
22857;SDS011;13919;45.644;13.764;2022-07-29T06:14:07;8.93;;;4.07;;
22857;SDS011;13919;45.644;13.764;2022-07-29T06:16:33;8.57;;;4.43;;
22857;SDS011;13919;45.644;13.764;2022-07-29T06:18:59;8.73;;;4.65;;
22857;SDS011;13919;45.644;13.764;2022-07-29T06:21:25;6.63;;;3.97;;
22857;SDS011;13919;45.644;13.764;2022-07-29T06:23:51;6.75;;;4.18;;
22857;SDS011;13919;45.644;13.764;2022-07-29T06:26:17;7.18;;;4.32;;
22857;SDS011;13919;45.644;13.764;2022-07-29T06:28:44;8.57;;;4.20;;
22857;SDS011;13919;45.644;13.764;2022-07-29T06:31:10;7.78;;;3.85;;
22857;SDS011;13919;45.644;13.764;2022-07-29T06:33:36;6.35;;;4.70;;
22857;SDS011;13919;45.644;13.764;2022-07-29T06:36:03;8.32;;;4.65;;
22857;SDS011;13919;45.644;13.764;2022-07-29T06:38:30;6.88;;;4.65;;
22857;SDS011;13919;45.644;13.764;2022-07-29T06:40:56;7.38;;;4.85;;
22857;SDS011;13919;45.644;13.764;2022-07-29T06:45:51;7.28;;;5.13;;
22857;SDS011;13919;45.644;13.764;2022-07-29T06:48:17;10.30;;;5.28;;
22857;SDS011;13919;45.644;13.764;2022-07-29T06:50:44;5.95;;;4.30;;
22857;SDS011;13919;45.644;13.764;2022-07-29T06:53:10;8.80;;;4.60;;
22857;SDS011;13919;45.644;13.764;2022-07-29T06:55:36;8.63;;;4.50;;
22857;SDS011;13919;45.644;13.764;2022-07-29T06:58:02;7.57;;;4.60;;
22857;SDS011;13919;45.644;13.764;2022-07-29T07:00:28;5.93;;;4.10;;
22857;SDS011;13919;45.644;13.764;2022-07-29T07:02:55;5.45;;;3.90;;
22857;SDS011;13919;45.644;13.764;2022-07-29T07:05:21;11.73;;;4.65;;
22857;SDS011;13919;45.644;13.764;2022-07-29T07:07:47;8.10;;;4.07;;
22857;SDS011;13919;45.644;13.764;2022-07-29T07:10:13;7.25;;;4.40;;
22857;SDS011;13919;45.644;13.764;2022-07-29T07:12:39;9.70;;;4.85;;
22857;SDS011;13919;45.644;13.764;2022-07-29T07:15:06;8.15;;;4.22;;
22857;SDS011;13919;45.644;13.764;2022-07-29T07:17:32;7.63;;;4.88;;
22857;SDS011;13919;45.644;13.764;2022-07-29T07:19:58;7.78;;;4.13;;
22857;SDS011;13919;45.644;13.764;2022-07-29T07:22:24;6.18;;;4.18;;
22857;SDS011;13919;45.644;13.764;2022-07-29T07:24:50;8.75;;;4.60;;
22857;SDS011;13919;45.644;13.764;2022-07-29T07:27:16;7.88;;;4.55;;
22857;SDS011;13919;45.644;13.764;2022-07-29T07:29:42;7.43;;;4.97;;
22857;SDS011;13919;45.644;13.764;2022-07-29T07:32:08;8.35;;;4.63;;
22857;SDS011;13919;45.644;13.764;2022-07-29T07:34:34;7.30;;;5.00;;
22857;SDS011;13919;45.644;13.764;2022-07-29T07:37:00;8.52;;;4.72;;
22857;SDS011;13919;45.644;13.764;2022-07-29T07:39:26;8.85;;;4.80;;
22857;SDS011;13919;45.644;13.764;2022-07-29T07:41:52;7.40;;;4.38;;
22857;SDS011;13919;45.644;13.764;2022-07-29T07:44:18;8.15;;;4.95;;
22857;SDS011;13919;45.644;13.764;2022-07-29T07:46:44;7.65;;;4.72;;
22857;SDS011;13919;45.644;13.764;2022-07-29T07:49:10;9.13;;;4.70;;
22857;SDS011;13919;45.644;13.764;2022-07-29T07:51:37;8.73;;;5.00;;
22857;SDS011;13919;45.644;13.764;2022-07-29T07:54:03;8.55;;;4.78;;
22857;SDS011;13919;45.644;13.764;2022-07-29T07:56:29;9.95;;;4.82;;
22857;SDS011;13919;45.644;13.764;2022-07-29T07:58:55;8.35;;;5.00;;
22857;SDS011;13919;45.644;13.764;2022-07-29T08:01:21;10.25;;;5.03;;
22857;SDS011;13919;45.644;13.764;2022-07-29T08:03:48;7.55;;;4.88;;
22857;SDS011;13919;45.644;13.764;2022-07-29T08:06:14;7.65;;;4.85;;
22857;SDS011;13919;45.644;13.764;2022-07-29T08:08:40;7.80;;;4.80;;
22857;SDS011;13919;45.644;13.764;2022-07-29T08:11:07;7.28;;;5.13;;
22857;SDS011;13919;45.644;13.764;2022-07-29T08:13:33;11.20;;;5.32;;
22857;SDS011;13919;45.644;13.764;2022-07-29T08:15:59;8.80;;;5.53;;
22857;SDS011;13919;45.644;13.764;2022-07-29T08:18:27;7.50;;;5.28;;
22857;SDS011;13919;45.644;13.764;2022-07-29T08:20:53;9.20;;;5.97;;
22857;SDS011;13919;45.644;13.764;2022-07-29T08:23:20;8.40;;;5.80;;
22857;SDS011;13919;45.644;13.764;2022-07-29T08:25:48;7.00;;;5.53;;
22857;SDS011;13919;45.644;13.764;2022-07-29T08:28:14;11.10;;;6.25;;
22857;SDS011;13919;45.644;13.764;2022-07-29T08:30:40;7.80;;;6.15;;
22857;SDS011;13919;45.644;13.764;2022-07-29T08:33:06;8.75;;;6.05;;
22857;SDS011;13919;45.644;13.764;2022-07-29T08:35:32;9.57;;;5.97;;
22857;SDS011;13919;45.644;13.764;2022-07-29T08:37:58;9.90;;;6.15;;
22857;SDS011;13919;45.644;13.764;2022-07-29T08:40:24;9.30;;;6.38;;
22857;SDS011;13919;45.644;13.764;2022-07-29T08:42:51;7.88;;;6.35;;
22857;SDS011;13919;45.644;13.764;2022-07-29T08:45:17;8.05;;;5.70;;
22857;SDS011;13919;45.644;13.764;2022-07-29T08:47:46;9.18;;;5.88;;
22857;SDS011;13919;45.644;13.764;2022-07-29T08:50:12;7.22;;;5.13;;
22857;SDS011;13919;45.644;13.764;2022-07-29T08:52:39;10.43;;;5.32;;
22857;SDS011;13919;45.644;13.764;2022-07-29T08:55:05;7.07;;;5.57;;
22857;SDS011;13919;45.644;13.764;2022-07-29T08:57:32;11.32;;;5.57;;
22857;SDS011;13919;45.644;13.764;2022-07-29T09:00:03;10.73;;;5.70;;
22857;SDS011;13919;45.644;13.764;2022-07-29T09:02:32;8.75;;;5.78;;
22857;SDS011;13919;45.644;13.764;2022-07-29T09:05:00;8.40;;;5.95;;
22857;SDS011;13919;45.644;13.764;2022-07-29T09:07:27;10.10;;;6.28;;
22857;SDS011;13919;45.644;13.764;2022-07-29T09:09:53;8.55;;;5.55;;
22857;SDS011;13919;45.644;13.764;2022-07-29T09:12:20;10.52;;;5.90;;
22857;SDS011;13919;45.644;13.764;2022-07-29T09:14:47;7.05;;;5.70;;
22857;SDS011;13919;45.644;13.764;2022-07-29T09:17:13;7.72;;;5.50;;
22857;SDS011;13919;45.644;13.764;2022-07-29T09:19:42;9.85;;;5.68;;
22857;SDS011;13919;45.644;13.764;2022-07-29T09:22:08;8.15;;;5.72;;
22857;SDS011;13919;45.644;13.764;2022-07-29T09:24:42;10.77;;;6.40;;
22857;SDS011;13919;45.644;13.764;2022-07-29T09:27:18;9.73;;;5.68;;
22857;SDS011;13919;45.644;13.764;2022-07-29T09:29:45;8.43;;;5.75;;
22857;SDS011;13919;45.644;13.764;2022-07-29T09:32:11;8.00;;;5.43;;
22857;SDS011;13919;45.644;13.764;2022-07-29T09:34:38;9.80;;;5.88;;
22857;SDS011;13919;45.644;13.764;2022-07-29T09:37:04;8.32;;;5.88;;
22857;SDS011;13919;45.644;13.764;2022-07-29T09:39:31;7.45;;;5.50;;
22857;SDS011;13919;45.644;13.764;2022-07-29T09:42:00;7.10;;;5.40;;
22857;SDS011;13919;45.644;13.764;2022-07-29T09:44:26;7.47;;;5.32;;
22857;SDS011;13919;45.644;13.764;2022-07-29T09:46:53;7.95;;;5.53;;
22857;SDS011;13919;45.644;13.764;2022-07-29T09:49:19;8.13;;;5.40;;
22857;SDS011;13919;45.644;13.764;2022-07-29T09:51:45;9.90;;;5.50;;
22857;SDS011;13919;45.644;13.764;2022-07-29T09:54:24;8.07;;;5.88;;
22857;SDS011;13919;45.644;13.764;2022-07-29T09:56:51;6.22;;;5.30;;
22857;SDS011;13919;45.644;13.764;2022-07-29T09:59:17;8.98;;;5.60;;
22857;SDS011;13919;45.644;13.764;2022-07-29T10:01:45;8.27;;;5.63;;
22857;SDS011;13919;45.644;13.764;2022-07-29T10:04:11;8.32;;;5.60;;
22857;SDS011;13919;45.644;13.764;2022-07-29T10:06:54;10.40;;;5.78;;
22857;SDS011;13919;45.644;13.764;2022-07-29T10:09:21;11.75;;;6.38;;
22857;SDS011;13919;45.644;13.764;2022-07-29T10:12:02;8.32;;;5.95;;
22857;SDS011;13919;45.644;13.764;2022-07-29T10:14:29;10.27;;;5.90;;
22857;SDS011;13919;45.644;13.764;2022-07-29T10:16:57;8.68;;;6.35;;
22857;SDS011;13919;45.644;13.764;2022-07-29T10:19:23;9.43;;;5.90;;
22857;SDS011;13919;45.644;13.764;2022-07-29T10:21:50;8.95;;;6.05;;
22857;SDS011;13919;45.644;13.764;2022-07-29T10:24:16;10.48;;;6.25;;
22857;SDS011;13919;45.644;13.764;2022-07-29T10:26:42;8.32;;;6.40;;
22857;SDS011;13919;45.644;13.764;2022-07-29T10:29:11;10.40;;;6.45;;
22857;SDS011;13919;45.644;13.764;2022-07-29T10:35:18;8.38;;;6.07;;
22857;SDS011;13919;45.644;13.764;2022-07-29T10:42:18;8.27;;;6.15;;
22857;SDS011;13919;45.644;13.764;2022-07-29T10:44:45;9.18;;;6.45;;
22857;SDS011;13919;45.644;13.764;2022-07-29T10:47:25;7.93;;;6.55;;
22857;SDS011;13919;45.644;13.764;2022-07-29T10:49:55;9.85;;;7.18;;
22857;SDS011;13919;45.644;13.764;2022-07-29T10:52:22;9.30;;;6.80;;
22857;SDS011;13919;45.644;13.764;2022-07-29T10:54:52;7.53;;;6.38;;
22857;SDS011;13919;45.644;13.764;2022-07-29T10:57:23;8.30;;;6.80;;
22857;SDS011;13919;45.644;13.764;2022-07-29T11:07:27;7.80;;;6.30;;
22857;SDS011;13919;45.644;13.764;2022-07-29T11:12:46;12.32;;;6.95;;
22857;SDS011;13919;45.644;13.764;2022-07-29T11:15:16;10.23;;;7.15;;
22857;SDS011;13919;45.644;13.764;2022-07-29T11:20:31;9.52;;;7.05;;
22857;SDS011;13919;45.644;13.764;2022-07-29T11:22:58;11.13;;;7.20;;
22857;SDS011;13919;45.644;13.764;2022-07-29T11:25:24;9.05;;;7.40;;
22857;SDS011;13919;45.644;13.764;2022-07-29T11:27:51;9.18;;;6.63;;
22857;SDS011;13919;45.644;13.764;2022-07-29T11:30:18;7.47;;;6.65;;
22857;SDS011;13919;45.644;13.764;2022-07-29T11:32:44;8.57;;;7.15;;
22857;SDS011;13919;45.644;13.764;2022-07-29T11:35:21;8.48;;;7.18;;
22857;SDS011;13919;45.644;13.764;2022-07-29T11:40:33;7.10;;;6.40;;
22857;SDS011;13919;45.644;13.764;2022-07-29T11:42:59;9.32;;;6.10;;
22857;SDS011;13919;45.644;13.764;2022-07-29T11:45:26;7.88;;;6.22;;
22857;SDS011;13919;45.644;13.764;2022-07-29T11:47:57;7.47;;;5.65;;
22857;SDS011;13919;45.644;13.764;2022-07-29T11:50:29;6.97;;;5.88;;
22857;SDS011;13919;45.644;13.764;2022-07-29T11:52:55;6.82;;;5.78;;
22857;SDS011;13919;45.644;13.764;2022-07-29T11:55:21;8.60;;;6.65;;
22857;SDS011;13919;45.644;13.764;2022-07-29T11:57:59;7.43;;;5.88;;
22857;SDS011;13919;45.644;13.764;2022-07-29T12:00:27;9.27;;;6.65;;
22857;SDS011;13919;45.644;13.764;2022-07-29T12:02:53;10.25;;;6.38;;
22857;SDS011;13919;45.644;13.764;2022-07-29T12:05:20;8.50;;;6.30;;
22857;SDS011;13919;45.644;13.764;2022-07-29T12:07:47;9.18;;;6.15;;
22857;SDS011;13919;45.644;13.764;2022-07-29T12:10:13;8.60;;;5.88;;
22857;SDS011;13919;45.644;13.764;2022-07-29T12:12:40;10.32;;;6.03;;
22857;SDS011;13919;45.644;13.764;2022-07-29T12:17:38;9.40;;;5.72;;
22857;SDS011;13919;45.644;13.764;2022-07-29T12:20:04;8.20;;;5.43;;
22857;SDS011;13919;45.644;13.764;2022-07-29T12:22:37;7.70;;;5.70;;
22857;SDS011;13919;45.644;13.764;2022-07-29T12:25:07;8.10;;;5.75;;
22857;SDS011;13919;45.644;13.764;2022-07-29T12:27:33;8.30;;;5.63;;
22857;SDS011;13919;45.644;13.764;2022-07-29T12:30:02;7.53;;;5.40;;
22857;SDS011;13919;45.644;13.764;2022-07-29T12:32:36;8.43;;;5.82;;
22857;SDS011;13919;45.644;13.764;2022-07-29T12:35:06;8.85;;;6.22;;
22857;SDS011;13919;45.644;13.764;2022-07-29T12:37:35;10.15;;;6.53;;
22857;SDS011;13919;45.644;13.764;2022-07-29T12:40:02;8.63;;;6.47;;
22857;SDS011;13919;45.644;13.764;2022-07-29T12:42:29;9.93;;;6.93;;
22857;SDS011;13919;45.644;13.764;2022-07-29T12:44:55;9.20;;;7.13;;
22857;SDS011;13919;45.644;13.764;2022-07-29T12:47:21;9.18;;;5.82;;
22857;SDS011;13919;45.644;13.764;2022-07-29T12:49:48;11.63;;;6.10;;
22857;SDS011;13919;45.644;13.764;2022-07-29T12:54:50;10.82;;;6.50;;
22857;SDS011;13919;45.644;13.764;2022-07-29T12:57:16;6.72;;;5.60;;
22857;SDS011;13919;45.644;13.764;2022-07-29T12:59:42;7.05;;;5.43;;
22857;SDS011;13919;45.644;13.764;2022-07-29T13:02:19;7.30;;;5.70;;
22857;SDS011;13919;45.644;13.764;2022-07-29T13:04:54;8.95;;;5.30;;
22857;SDS011;13919;45.644;13.764;2022-07-29T13:07:23;7.75;;;5.15;;
22857;SDS011;13919;45.644;13.764;2022-07-29T13:09:50;7.68;;;6.00;;
22857;SDS011;13919;45.644;13.764;2022-07-29T13:12:16;8.20;;;5.72;;
22857;SDS011;13919;45.644;13.764;2022-07-29T13:14:49;6.90;;;5.22;;
22857;SDS011;13919;45.644;13.764;2022-07-29T13:17:20;9.35;;;5.70;;
22857;SDS011;13919;45.644;13.764;2022-07-29T13:19:51;9.82;;;5.50;;
22857;SDS011;13919;45.644;13.764;2022-07-29T13:22:18;7.53;;;5.55;;
22857;SDS011;13919;45.644;13.764;2022-07-29T13:25:05;7.93;;;5.30;;
22857;SDS011;13919;45.644;13.764;2022-07-29T13:27:34;8.00;;;5.28;;
22857;SDS011;13919;45.644;13.764;2022-07-29T13:30:05;7.72;;;5.15;;
22857;SDS011;13919;45.644;13.764;2022-07-29T13:32:32;9.77;;;5.93;;
22857;SDS011;13919;45.644;13.764;2022-07-29T13:35:05;7.00;;;5.68;;
22857;SDS011;13919;45.644;13.764;2022-07-29T13:37:31;6.82;;;5.28;;
22857;SDS011;13919;45.644;13.764;2022-07-29T13:39:59;6.20;;;5.55;;
22857;SDS011;13919;45.644;13.764;2022-07-29T13:42:25;9.25;;;5.80;;
22857;SDS011;13919;45.644;13.764;2022-07-29T13:44:52;7.70;;;5.15;;
22857;SDS011;13919;45.644;13.764;2022-07-29T13:47:18;7.55;;;5.55;;
22857;SDS011;13919;45.644;13.764;2022-07-29T13:49:45;6.65;;;4.70;;
22857;SDS011;13919;45.644;13.764;2022-07-29T13:52:11;8.80;;;5.32;;
22857;SDS011;13919;45.644;13.764;2022-07-29T13:54:37;10.80;;;4.90;;
22857;SDS011;13919;45.644;13.764;2022-07-29T13:57:04;8.45;;;5.32;;
22857;SDS011;13919;45.644;13.764;2022-07-29T13:59:30;8.88;;;5.53;;
22857;SDS011;13919;45.644;13.764;2022-07-29T14:01:56;5.93;;;4.72;;
22857;SDS011;13919;45.644;13.764;2022-07-29T14:04:22;8.88;;;5.10;;
22857;SDS011;13919;45.644;13.764;2022-07-29T14:06:48;6.50;;;4.88;;
22857;SDS011;13919;45.644;13.764;2022-07-29T14:09:15;8.55;;;4.82;;
22857;SDS011;13919;45.644;13.764;2022-07-29T14:11:41;10.20;;;5.43;;
22857;SDS011;13919;45.644;13.764;2022-07-29T14:14:07;9.98;;;5.05;;
22857;SDS011;13919;45.644;13.764;2022-07-29T14:16:33;6.75;;;5.28;;
22857;SDS011;13919;45.644;13.764;2022-07-29T14:18:59;6.95;;;5.22;;
22857;SDS011;13919;45.644;13.764;2022-07-29T14:21:25;10.25;;;5.22;;
22857;SDS011;13919;45.644;13.764;2022-07-29T14:23:51;8.27;;;5.15;;
22857;SDS011;13919;45.644;13.764;2022-07-29T14:26:19;7.28;;;4.53;;
22857;SDS011;13919;45.644;13.764;2022-07-29T14:28:45;6.07;;;4.38;;
22857;SDS011;13919;45.644;13.764;2022-07-29T14:31:11;8.93;;;4.82;;
22857;SDS011;13919;45.644;13.764;2022-07-29T14:33:37;6.47;;;4.38;;
22857;SDS011;13919;45.644;13.764;2022-07-29T14:36:03;6.35;;;3.90;;
22857;SDS011;13919;45.644;13.764;2022-07-29T14:38:29;4.68;;;4.00;;
22857;SDS011;13919;45.644;13.764;2022-07-29T14:40:55;6.30;;;4.22;;
22857;SDS011;13919;45.644;13.764;2022-07-29T14:43:22;5.72;;;3.80;;
22857;SDS011;13919;45.644;13.764;2022-07-29T14:45:48;9.07;;;4.10;;
22857;SDS011;13919;45.644;13.764;2022-07-29T14:48:14;7.82;;;4.38;;
22857;SDS011;13919;45.644;13.764;2022-07-29T14:50:40;6.40;;;4.20;;
22857;SDS011;13919;45.644;13.764;2022-07-29T14:53:06;9.30;;;4.90;;
22857;SDS011;13919;45.644;13.764;2022-07-29T14:55:32;5.10;;;4.20;;
22857;SDS011;13919;45.644;13.764;2022-07-29T14:57:58;6.90;;;4.38;;
22857;SDS011;13919;45.644;13.764;2022-07-29T15:00:24;7.53;;;4.15;;
22857;SDS011;13919;45.644;13.764;2022-07-29T15:02:50;7.85;;;4.10;;
22857;SDS011;13919;45.644;13.764;2022-07-29T15:05:16;7.35;;;3.90;;
22857;SDS011;13919;45.644;13.764;2022-07-29T15:07:42;8.13;;;3.97;;
22857;SDS011;13919;45.644;13.764;2022-07-29T15:10:08;5.70;;;4.07;;
22857;SDS011;13919;45.644;13.764;2022-07-29T15:12:34;4.22;;;2.83;;
22857;SDS011;13919;45.644;13.764;2022-07-29T15:15:01;6.80;;;3.78;;
22857;SDS011;13919;45.644;13.764;2022-07-29T15:17:27;6.05;;;3.72;;
22857;SDS011;13919;45.644;13.764;2022-07-29T15:19:53;4.32;;;2.72;;
22857;SDS011;13919;45.644;13.764;2022-07-29T15:22:19;4.15;;;3.10;;